Time;durP1;ratioP1;P1;durP2;ratioP2;P2;SDS_P1;SDS_P2;PMS_P1;PMS_P2;Temp;Humidity;BMP_temperature;BMP_pressure;BME280_temperature;BME280_humidity;BME280_pressure;Samples;Min_cycle;Max_cycle;Signal;HPM_P1;HPM_P2
2022/10/17 00:01:50;;;;;;;7.90;2.87;;;;;;;;;;2297210;58;21036;-76
2022/10/17 00:04:17;;;;;;;6.50;3.08;;;;;;;;;;2297743;58;21116;-76
2022/10/17 00:06:44;;;;;;;7.10;3.05;;;;;;;;;;2297832;58;21048;-76
2022/10/17 00:09:11;;;;;;;10.07;3.30;;;;;;;;;;2298211;58;21119;-76
2022/10/17 00:11:39;;;;;;;5.95;3.20;;;;;;;;;;2297859;58;21052;-76
2022/10/17 00:14:06;;;;;;;11.48;3.33;;;;;;;;;;2300683;54;21199;-76
2022/10/17 00:16:36;;;;;;;5.90;2.90;;;;;;;;;;2297694;56;22899;-76
2022/10/17 00:19:03;;;;;;;9.05;3.20;;;;;;;;;;2297078;58;21191;-76
2022/10/17 00:21:30;;;;;;;7.07;3.40;;;;;;;;;;2345954;54;21614;-76
2022/10/17 00:23:57;;;;;;;6.70;2.90;;;;;;;;;;2302317;54;21060;-76
2022/10/17 00:26:24;;;;;;;6.60;2.78;;;;;;;;;;2297635;58;21128;-75
2022/10/17 00:28:52;;;;;;;7.78;3.37;;;;;;;;;;2298102;58;21056;-76
2022/10/17 00:31:20;;;;;;;7.25;3.12;;;;;;;;;;2297335;58;21048;-76
2022/10/17 00:33:48;;;;;;;5.03;2.55;;;;;;;;;;2296906;58;21052;-76
2022/10/17 00:36:16;;;;;;;5.43;2.85;;;;;;;;;;2297514;58;21526;-76
2022/10/17 00:38:45;;;;;;;5.35;2.37;;;;;;;;;;2297758;58;21581;-76
2022/10/17 00:41:13;;;;;;;4.37;2.40;;;;;;;;;;2297212;58;21606;-76
2022/10/17 00:43:54;;;;;;;4.15;2.72;;;;;;;;;;2297961;58;21040;-76
2022/10/17 00:46:22;;;;;;;9.02;2.60;;;;;;;;;;2297304;58;21128;-76
2022/10/17 00:48:49;;;;;;;4.40;2.60;;;;;;;;;;2297618;58;21056;-76
2022/10/17 00:51:17;;;;;;;10.20;2.85;;;;;;;;;;2297131;58;21128;-76
2022/10/17 00:53:44;;;;;;;8.90;2.80;;;;;;;;;;2297120;58;21093;-76
2022/10/17 00:56:11;;;;;;;5.82;2.40;;;;;;;;;;2312134;54;21401;-76
2022/10/17 00:58:38;;;;;;;8.20;2.83;;;;;;;;;;2297862;58;21045;-76
2022/10/17 01:01:05;;;;;;;7.43;2.75;;;;;;;;;;2297427;58;21706;-76
2022/10/17 01:03:32;;;;;;;5.47;2.35;;;;;;;;;;2298027;58;21610;-76
2022/10/17 01:05:59;;;;;;;5.72;2.80;;;;;;;;;;2296714;58;21107;-76
2022/10/17 01:08:26;;;;;;;5.82;2.47;;;;;;;;;;2297286;58;21526;-76
2022/10/17 01:10:57;;;;;;;7.30;2.67;;;;;;;;;;2297235;58;21122;-76
2022/10/17 01:13:30;;;;;;;5.15;2.70;;;;;;;;;;2297050;58;21120;-76
2022/10/17 01:16:03;;;;;;;4.18;2.45;;;;;;;;;;2298018;58;21036;-76
2022/10/17 01:18:38;;;;;;;4.50;2.33;;;;;;;;;;2298353;58;21546;-76
2022/10/17 01:21:37;;;;;;;8.18;2.70;;;;;;;;;;2340018;54;21052;-76
2022/10/17 01:24:14;;;;;;;6.55;3.10;;;;;;;;;;2277770;58;21136;-76
2022/10/17 01:26:54;;;;;;;9.38;3.33;;;;;;;;;;2297314;58;21044;-75
2022/10/17 01:29:32;;;;;;;7.72;2.90;;;;;;;;;;2297533;58;21542;-76
2022/10/17 01:31:59;;;;;;;7.37;2.35;;;;;;;;;;2296547;58;21084;-76
2022/10/17 01:34:31;;;;;;;6.37;2.78;;;;;;;;;;2297530;58;21060;-76
2022/10/17 01:37:01;;;;;;;5.72;2.30;;;;;;;;;;2298026;58;21131;-76
2022/10/17 01:39:34;;;;;;;6.85;2.70;;;;;;;;;;2297460;58;21060;-76
2022/10/17 01:42:02;;;;;;;5.85;3.08;;;;;;;;;;2356944;54;21694;-77
2022/10/17 01:44:34;;;;;;;7.45;2.70;;;;;;;;;;2297283;58;21046;-76
2022/10/17 01:47:03;;;;;;;4.32;2.47;;;;;;;;;;2296519;58;21116;-76
2022/10/17 01:49:31;;;;;;;8.90;3.17;;;;;;;;;;2297982;58;21052;-76
2022/10/17 01:52:00;;;;;;;7.12;2.90;;;;;;;;;;2297461;58;21063;-76
2022/10/17 01:54:31;;;;;;;6.18;2.50;;;;;;;;;;2297405;58;21066;-76
2022/10/17 01:57:00;;;;;;;5.53;2.50;;;;;;;;;;2298060;58;21040;-76
2022/10/17 01:59:30;;;;;;;7.18;2.55;;;;;;;;;;2297316;58;21547;-76
2022/10/17 02:01:58;;;;;;;8.68;4.05;;;;;;;;;;2306028;54;21108;-76
2022/10/17 02:04:25;;;;;;;9.88;2.90;;;;;;;;;;2297279;58;21048;-76
2022/10/17 02:06:52;;;;;;;12.00;3.08;;;;;;;;;;2297821;58;21080;-76
2022/10/17 02:09:21;;;;;;;4.50;2.83;;;;;;;;;;2424181;54;21088;-76
2022/10/17 02:11:53;;;;;;;9.93;3.00;;;;;;;;;;2297255;58;21590;-76
2022/10/17 02:14:26;;;;;;;4.05;2.60;;;;;;;;;;2297088;58;22240;-76
2022/10/17 02:19:33;;;;;;;13.13;2.85;;;;;;;;;;2355031;57;20120;-75
2022/10/17 02:22:07;;;;;;;2.80;2.10;;;;;;;;;;2347014;57;21117;-75
2022/10/17 02:24:38;;;;;;;6.87;2.78;;;;;;;;;;2354348;56;21699;-76
2022/10/17 02:27:06;;;;;;;4.70;2.03;;;;;;;;;;2375036;56;21075;-76
2022/10/17 02:29:36;;;;;;;3.03;2.03;;;;;;;;;;2424271;52;21052;-76
2022/10/17 02:32:05;;;;;;;4.28;2.03;;;;;;;;;;2420871;52;21059;-76
2022/10/17 02:34:34;;;;;;;3.62;2.40;;;;;;;;;;2374520;56;21494;-76
2022/10/17 02:37:05;;;;;;;7.62;2.47;;;;;;;;;;2374586;56;21031;-77
2022/10/17 02:39:32;;;;;;;6.22;2.40;;;;;;;;;;2374151;56;21086;-76
2022/10/17 02:42:01;;;;;;;5.80;2.50;;;;;;;;;;2374860;56;21031;-76
2022/10/17 02:44:30;;;;;;;7.00;2.20;;;;;;;;;;2481687;52;21154;-76
2022/10/17 02:47:02;;;;;;;5.47;2.33;;;;;;;;;;2374303;56;21027;-76
2022/10/17 02:49:31;;;;;;;5.53;2.42;;;;;;;;;;2374687;56;21530;-76
2022/10/17 02:52:01;;;;;;;7.12;2.80;;;;;;;;;;2374563;56;21050;-76
2022/10/17 02:54:33;;;;;;;7.12;2.53;;;;;;;;;;2374923;56;21040;-76
2022/10/17 02:57:03;;;;;;;3.40;2.55;;;;;;;;;;2375413;56;21525;-76
2022/10/17 02:59:31;;;;;;;3.65;2.10;;;;;;;;;;2374960;56;21075;-76
2022/10/17 03:02:02;;;;;;;3.58;2.42;;;;;;;;;;2374575;56;21693;-76
2022/10/17 03:04:29;;;;;;;4.30;2.67;;;;;;;;;;2374230;56;21043;-76
2022/10/17 03:06:56;;;;;;;4.90;2.55;;;;;;;;;;2375199;56;21047;-76
2022/10/17 03:09:23;;;;;;;3.87;2.10;;;;;;;;;;2375237;56;21055;-76
2022/10/17 03:11:50;;;;;;;7.80;2.47;;;;;;;;;;2375209;56;21027;-77
2022/10/17 03:14:17;;;;;;;3.15;2.28;;;;;;;;;;2373895;56;21043;-76
2022/10/17 03:16:44;;;;;;;3.72;2.33;;;;;;;;;;2374606;56;21050;-76
2022/10/17 03:19:11;;;;;;;4.25;2.72;;;;;;;;;;2375996;52;21668;-76
2022/10/17 03:21:38;;;;;;;4.15;2.20;;;;;;;;;;2374305;56;21031;-76
2022/10/17 03:24:06;;;;;;;4.80;2.15;;;;;;;;;;2375293;56;21094;-76
2022/10/17 03:26:33;;;;;;;3.90;1.83;;;;;;;;;;2375244;56;21174;-76
2022/10/17 03:29:00;;;;;;;4.93;2.20;;;;;;;;;;2375022;56;21046;-77
2022/10/17 03:31:27;;;;;;;6.30;3.22;;;;;;;;;;2372738;56;21047;-77
2022/10/17 03:33:54;;;;;;;4.32;2.30;;;;;;;;;;2373541;56;21027;-76
2022/10/17 03:36:21;;;;;;;3.58;2.47;;;;;;;;;;2550643;52;21553;-76
2022/10/17 03:38:48;;;;;;;4.68;2.35;;;;;;;;;;2373139;56;21177;-76
2022/10/17 03:41:15;;;;;;;8.50;2.20;;;;;;;;;;2373786;56;21130;-76
2022/10/17 03:43:42;;;;;;;6.22;2.00;;;;;;;;;;2553092;52;21652;-76
2022/10/17 03:46:09;;;;;;;6.80;2.03;;;;;;;;;;2374203;56;21101;-76
2022/10/17 03:48:36;;;;;;;2.50;1.87;;;;;;;;;;2373193;56;21088;-77
2022/10/17 03:51:04;;;;;;;7.18;2.45;;;;;;;;;;2373761;56;21047;-76
2022/10/17 03:53:32;;;;;;;3.30;2.42;;;;;;;;;;2372618;56;21135;-77
2022/10/17 03:56:08;;;;;;;3.62;2.30;;;;;;;;;;2373697;56;21582;-76
2022/10/17 03:58:35;;;;;;;2.87;2.08;;;;;;;;;;2373966;56;21043;-77
2022/10/17 04:01:04;;;;;;;4.37;2.28;;;;;;;;;;2373984;56;21039;-76
2022/10/17 04:03:31;;;;;;;4.82;2.50;;;;;;;;;;2372961;56;21190;-77
2022/10/17 04:05:59;;;;;;;4.37;2.08;;;;;;;;;;2375688;52;21533;-77
2022/10/17 04:08:26;;;;;;;2.35;1.90;;;;;;;;;;2373845;56;21090;-77
2022/10/17 04:10:53;;;;;;;3.12;1.92;;;;;;;;;;2377919;52;21209;-78
2022/10/17 04:13:20;;;;;;;2.37;1.98;;;;;;;;;;2416790;52;21042;-78
2022/10/17 04:15:54;;;;;;;2.60;1.87;;;;;;;;;;2374218;56;21106;-77
2022/10/17 04:18:21;;;;;;;2.22;1.87;;;;;;;;;;2388628;52;21094;-77
2022/10/17 04:20:48;;;;;;;4.05;2.50;;;;;;;;;;2374158;56;21152;-77
2022/10/17 04:23:15;;;;;;;3.45;1.90;;;;;;;;;;2373395;56;21062;-77
2022/10/17 04:25:42;;;;;;;3.70;1.98;;;;;;;;;;2372134;52;21043;-76
2022/10/17 04:28:09;;;;;;;2.53;2.20;;;;;;;;;;2371288;56;21055;-77
2022/10/17 04:30:36;;;;;;;6.45;2.25;;;;;;;;;;2370391;56;21047;-76
2022/10/17 04:33:03;;;;;;;4.28;3.05;;;;;;;;;;2371604;56;21039;-77
2022/10/17 04:35:30;;;;;;;2.35;2.10;;;;;;;;;;2371793;56;21111;-77
2022/10/17 04:37:57;;;;;;;2.17;1.90;;;;;;;;;;2371482;56;21071;-75
2022/10/17 04:40:25;;;;;;;2.62;2.40;;;;;;;;;;2372184;56;21557;-76
2022/10/17 04:42:51;;;;;;;2.30;1.83;;;;;;;;;;2373975;56;21149;-77
2022/10/17 04:45:18;;;;;;;2.70;1.87;;;;;;;;;;2373447;56;21589;-76
2022/10/17 04:47:45;;;;;;;3.70;2.10;;;;;;;;;;2545085;52;21173;-76
2022/10/17 04:50:12;;;;;;;4.12;2.20;;;;;;;;;;2373920;56;21044;-77
2022/10/17 04:52:39;;;;;;;2.33;1.95;;;;;;;;;;2373803;56;21118;-76
2022/10/17 04:55:07;;;;;;;1.95;1.80;;;;;;;;;;2374187;56;21047;-77
2022/10/17 04:57:35;;;;;;;2.20;1.90;;;;;;;;;;2374068;56;21062;-76
2022/10/17 05:00:02;;;;;;;3.05;2.05;;;;;;;;;;2374079;56;21108;-76
2022/10/17 05:02:29;;;;;;;2.17;1.98;;;;;;;;;;2373626;56;21030;-76
2022/10/17 05:04:56;;;;;;;2.35;2.15;;;;;;;;;;2389912;52;21114;-76
2022/10/17 05:07:23;;;;;;;2.90;2.25;;;;;;;;;;2373843;56;21686;-77
2022/10/17 05:09:50;;;;;;;3.28;2.45;;;;;;;;;;2473661;52;21046;-76
2022/10/17 05:12:17;;;;;;;3.62;2.22;;;;;;;;;;2373483;56;21043;-76
2022/10/17 05:14:44;;;;;;;4.47;2.47;;;;;;;;;;2374194;56;21031;-76
2022/10/17 05:17:11;;;;;;;3.15;2.05;;;;;;;;;;2373910;56;21117;-76
2022/10/17 05:19:38;;;;;;;3.37;2.55;;;;;;;;;;2373682;56;21110;-77
2022/10/17 05:22:05;;;;;;;4.05;2.22;;;;;;;;;;2373494;56;21110;-78
2022/10/17 05:24:32;;;;;;;3.95;2.70;;;;;;;;;;2373886;56;21058;-76
2022/10/17 05:26:59;;;;;;;5.70;2.80;;;;;;;;;;2372821;56;21023;-76
2022/10/17 05:29:26;;;;;;;3.53;2.17;;;;;;;;;;2440589;52;21077;-77
2022/10/17 05:31:53;;;;;;;4.70;2.53;;;;;;;;;;2244740;60;21156;-77
2022/10/17 05:34:20;;;;;;;5.45;2.50;;;;;;;;;;2250495;59;21130;-77
2022/10/17 05:36:47;;;;;;;5.45;2.90;;;;;;;;;;2271019;59;21053;-77
2022/10/17 05:39:18;;;;;;;4.07;2.45;;;;;;;;;;2271292;59;21386;-77
2022/10/17 05:41:45;;;;;;;7.43;2.35;;;;;;;;;;2270476;59;21091;-77
2022/10/17 05:44:12;;;;;;;3.90;2.45;;;;;;;;;;2270983;59;21514;-77
2022/10/17 05:46:39;;;;;;;6.20;2.50;;;;;;;;;;2271129;59;21114;-77
2022/10/17 05:49:06;;;;;;;3.50;2.50;;;;;;;;;;2271158;59;21633;-77
2022/10/17 05:51:34;;;;;;;8.48;2.80;;;;;;;;;;2270543;59;21054;-77
2022/10/17 05:54:01;;;;;;;2.55;2.35;;;;;;;;;;2271166;59;21046;-77
2022/10/17 05:56:27;;;;;;;4.87;2.40;;;;;;;;;;2271068;59;21071;-77
2022/10/17 05:58:54;;;;;;;6.55;2.30;;;;;;;;;;2270632;59;21083;-77
2022/10/17 06:01:23;;;;;;;4.68;2.35;;;;;;;;;;2270782;59;21050;-76
2022/10/17 06:03:50;;;;;;;5.60;2.87;;;;;;;;;;2271062;59;21059;-77
2022/10/17 06:06:17;;;;;;;3.60;2.50;;;;;;;;;;2271188;59;21632;-77
2022/10/17 06:08:45;;;;;;;2.67;2.47;;;;;;;;;;2269131;59;21130;-77
2022/10/17 06:11:12;;;;;;;2.97;2.40;;;;;;;;;;2271023;59;21059;-77
2022/10/17 06:13:39;;;;;;;4.30;2.20;;;;;;;;;;2502131;55;21115;-77
2022/10/17 06:16:07;;;;;;;3.58;2.35;;;;;;;;;;2271025;59;21055;-77
2022/10/17 06:18:34;;;;;;;4.37;2.55;;;;;;;;;;2271093;59;21557;-77
2022/10/17 06:21:04;;;;;;;3.62;2.55;;;;;;;;;;2271232;59;21134;-77
2022/10/17 06:23:31;;;;;;;3.62;2.28;;;;;;;;;;2270624;59;21059;-77
2022/10/17 06:26:01;;;;;;;3.47;2.22;;;;;;;;;;2270647;59;21118;-78
2022/10/17 06:28:28;;;;;;;3.42;2.50;;;;;;;;;;2272022;59;21043;-78
2022/10/17 06:30:55;;;;;;;4.93;2.70;;;;;;;;;;2271732;59;21070;-77
2022/10/17 06:33:22;;;;;;;3.53;2.50;;;;;;;;;;2503003;55;21376;-77
2022/10/17 06:35:52;;;;;;;2.90;2.40;;;;;;;;;;2271763;59;22180;-78
2022/10/17 06:38:20;;;;;;;3.37;2.12;;;;;;;;;;2271984;59;21078;-78
2022/10/17 06:40:47;;;;;;;3.60;2.30;;;;;;;;;;2269970;59;21103;-78
2022/10/17 06:43:14;;;;;;;4.28;2.50;;;;;;;;;;2270518;59;21146;-77
2022/10/17 06:45:41;;;;;;;5.45;2.62;;;;;;;;;;2270887;59;21078;-78
2022/10/17 06:48:08;;;;;;;2.87;2.30;;;;;;;;;;2271721;59;21067;-78
2022/10/17 06:50:35;;;;;;;3.95;2.62;;;;;;;;;;2271740;59;21059;-77
2022/10/17 06:53:02;;;;;;;4.40;2.20;;;;;;;;;;2502557;55;21551;-78
2022/10/17 06:55:30;;;;;;;3.70;2.22;;;;;;;;;;2271984;59;21067;-78
2022/10/17 06:57:57;;;;;;;2.92;2.40;;;;;;;;;;2271190;59;21071;-77
2022/10/17 07:00:25;;;;;;;4.55;2.35;;;;;;;;;;2271602;59;21070;-78
2022/10/17 07:02:52;;;;;;;3.55;2.60;;;;;;;;;;2270901;59;21083;-78
2022/10/17 07:05:19;;;;;;;4.37;2.37;;;;;;;;;;2503208;55;21074;-77
2022/10/17 07:07:46;;;;;;;3.15;2.25;;;;;;;;;;2272059;59;21055;-78
2022/10/17 07:10:13;;;;;;;5.35;2.60;;;;;;;;;;2272412;59;21154;-77
2022/10/17 07:12:41;;;;;;;2.87;2.40;;;;;;;;;;2271401;59;21716;-78
2022/10/17 07:15:09;;;;;;;3.72;2.45;;;;;;;;;;2272354;59;21091;-77
2022/10/17 07:17:36;;;;;;;2.85;2.37;;;;;;;;;;2269200;59;22146;-78
2022/10/17 07:20:03;;;;;;;3.97;2.30;;;;;;;;;;2268638;59;21111;-79
2022/10/17 07:22:30;;;;;;;3.33;2.30;;;;;;;;;;2502519;55;21126;-78
2022/10/17 07:24:57;;;;;;;3.20;2.28;;;;;;;;;;2502406;55;21548;-77
2022/10/17 07:27:24;;;;;;;3.45;2.58;;;;;;;;;;2272352;59;21147;-78
2022/10/17 07:29:51;;;;;;;3.83;2.58;;;;;;;;;;2272001;59;21075;-78
2022/10/17 07:32:18;;;;;;;5.72;2.50;;;;;;;;;;2269533;59;21062;-78
2022/10/17 07:34:45;;;;;;;4.53;2.10;;;;;;;;;;2271058;59;21103;-77
2022/10/17 07:37:12;;;;;;;2.67;2.47;;;;;;;;;;2270758;59;21118;-77
2022/10/17 07:39:39;;;;;;;2.37;2.17;;;;;;;;;;2271913;59;21039;-77
2022/10/17 07:42:06;;;;;;;4.35;2.30;;;;;;;;;;2270800;59;21070;-78
2022/10/17 07:44:34;;;;;;;3.90;2.60;;;;;;;;;;2501364;55;21082;-78
2022/10/17 07:47:01;;;;;;;3.97;2.30;;;;;;;;;;2271210;59;21107;-78
2022/10/17 07:49:28;;;;;;;4.15;2.12;;;;;;;;;;2270650;59;21063;-77
2022/10/17 07:51:56;;;;;;;5.40;1.90;;;;;;;;;;2270551;59;21103;-78
2022/10/17 07:54:23;;;;;;;3.60;2.17;;;;;;;;;;2270909;59;21067;-77
2022/10/17 07:56:50;;;;;;;5.97;2.67;;;;;;;;;;2269858;59;21241;-77
2022/10/17 07:59:17;;;;;;;2.92;2.12;;;;;;;;;;2268107;59;21075;-78
2022/10/17 08:01:44;;;;;;;4.18;2.70;;;;;;;;;;2268363;59;21114;-77
2022/10/17 08:04:11;;;;;;;3.53;2.20;;;;;;;;;;2269562;59;21614;-77
2022/10/17 08:06:38;;;;;;;4.78;2.40;;;;;;;;;;2270662;59;21051;-78
2022/10/17 08:09:05;;;;;;;2.28;2.08;;;;;;;;;;2271321;59;21150;-78
2022/10/17 08:11:34;;;;;;;3.70;2.22;;;;;;;;;;2272551;59;21071;-78
2022/10/17 08:14:01;;;;;;;2.70;2.20;;;;;;;;;;2272432;59;21134;-78
2022/10/17 08:16:28;;;;;;;4.72;2.45;;;;;;;;;;2271046;59;21039;-78
2022/10/17 08:18:55;;;;;;;3.30;2.10;;;;;;;;;;2272716;59;21059;-77
2022/10/17 08:21:22;;;;;;;2.83;2.05;;;;;;;;;;2272478;59;21051;-78
2022/10/17 08:23:49;;;;;;;2.42;2.10;;;;;;;;;;2271669;59;21110;-78
2022/10/17 08:26:18;;;;;;;5.80;2.20;;;;;;;;;;2272569;59;21097;-78
2022/10/17 08:28:46;;;;;;;2.40;2.10;;;;;;;;;;2272390;59;21050;-79
2022/10/17 08:31:17;;;;;;;3.85;2.17;;;;;;;;;;2269826;59;21622;-78
2022/10/17 08:33:47;;;;;;;2.75;2.05;;;;;;;;;;2205684;59;21447;-79
2022/10/17 08:36:15;;;;;;;2.65;2.00;;;;;;;;;;2270791;59;21760;-78
2022/10/17 08:38:42;;;;;;;3.47;2.00;;;;;;;;;;2271186;59;21050;-78
2022/10/17 08:41:14;;;;;;;3.10;2.15;;;;;;;;;;2270771;59;21745;-78
2022/10/17 08:43:46;;;;;;;3.03;2.45;;;;;;;;;;2271327;59;21063;-79
2022/10/17 08:46:14;;;;;;;4.78;2.47;;;;;;;;;;2270892;59;21062;-79
2022/10/17 08:48:43;;;;;;;3.50;2.40;;;;;;;;;;2270350;59;21653;-79
2022/10/17 08:51:13;;;;;;;10.30;2.83;;;;;;;;;;2270262;59;21127;-78
2022/10/17 08:53:43;;;;;;;4.28;2.00;;;;;;;;;;2270955;59;21644;-79
2022/10/17 08:56:15;;;;;;;2.35;2.00;;;;;;;;;;2501826;55;21067;-78
2022/10/17 08:58:42;;;;;;;2.60;2.40;;;;;;;;;;2271124;59;21079;-78
2022/10/17 09:01:12;;;;;;;4.20;2.30;;;;;;;;;;2270306;59;21106;-78
2022/10/17 09:03:45;;;;;;;2.92;2.17;;;;;;;;;;2270294;59;21075;-77
2022/10/17 09:06:17;;;;;;;8.03;2.80;;;;;;;;;;2499208;55;21139;-78
2022/10/17 09:08:48;;;;;;;3.70;2.63;;;;;;;;;;2269909;59;21039;-77
2022/10/17 09:11:21;;;;;;;4.80;2.30;;;;;;;;;;2268769;59;21079;-78
2022/10/17 09:13:54;;;;;;;3.00;2.17;;;;;;;;;;2269817;59;21074;-78
2022/10/17 09:16:52;;;;;;;3.37;2.33;;;;;;;;;;2270343;59;21097;-78
2022/10/17 09:19:23;;;;;;;2.40;2.20;;;;;;;;;;2249919;59;21079;-78
2022/10/17 09:21:52;;;;;;;2.83;2.00;;;;;;;;;;2269643;59;21075;-78
2022/10/17 09:24:24;;;;;;;3.95;2.50;;;;;;;;;;2270358;59;21055;-78
2022/10/17 09:26:51;;;;;;;3.72;2.30;;;;;;;;;;2270149;59;21063;-78
2022/10/17 09:29:21;;;;;;;2.47;2.10;;;;;;;;;;2270291;59;21051;-79
2022/10/17 09:31:51;;;;;;;4.68;2.53;;;;;;;;;;2269601;59;21521;-78
2022/10/17 09:34:18;;;;;;;3.97;2.30;;;;;;;;;;2269867;59;21597;-78
2022/10/17 09:36:45;;;;;;;4.85;2.25;;;;;;;;;;2269529;59;21700;-78
2022/10/17 09:39:14;;;;;;;3.53;2.78;;;;;;;;;;2270076;59;21067;-78
2022/10/17 09:41:41;;;;;;;4.35;2.60;;;;;;;;;;2269624;59;21066;-78
2022/10/17 09:44:13;;;;;;;4.15;2.40;;;;;;;;;;2270338;59;21349;-78
2022/10/17 09:46:42;;;;;;;4.35;3.03;;;;;;;;;;2269387;59;21055;-78
2022/10/17 09:49:11;;;;;;;3.67;2.80;;;;;;;;;;2269071;59;21059;-79
2022/10/17 09:51:39;;;;;;;6.70;2.35;;;;;;;;;;2267710;59;21051;-80
2022/10/17 09:54:11;;;;;;;5.37;2.15;;;;;;;;;;2500071;55;21090;-79
2022/10/17 09:56:57;;;;;;;6.15;2.58;;;;;;;;;;2269163;59;21059;-78
2022/10/17 09:59:30;;;;;;;4.87;2.33;;;;;;;;;;2269956;59;21150;-79
2022/10/17 10:02:07;;;;;;;7.10;2.37;;;;;;;;;;2267253;59;21055;-79
2022/10/17 10:04:34;;;;;;;3.60;2.55;;;;;;;;;;2268172;59;21150;-79
2022/10/17 10:07:02;;;;;;;4.22;2.75;;;;;;;;;;2268046;59;21131;-78
2022/10/17 10:09:31;;;;;;;3.37;2.28;;;;;;;;;;2265956;59;21130;-79
2022/10/17 10:11:59;;;;;;;2.90;2.40;;;;;;;;;;2266398;59;21130;-79
2022/10/17 10:14:32;;;;;;;7.93;2.28;;;;;;;;;;2267679;59;21585;-79
2022/10/17 10:16:59;;;;;;;3.67;2.42;;;;;;;;;;2266597;59;21201;-79
2022/10/17 10:19:29;;;;;;;8.30;2.78;;;;;;;;;;2265427;59;21056;-79
2022/10/17 10:21:57;;;;;;;3.60;2.42;;;;;;;;;;2498581;55;21042;-79
2022/10/17 10:24:25;;;;;;;9.25;2.75;;;;;;;;;;2268624;59;21070;-79
2022/10/17 10:26:54;;;;;;;4.87;2.45;;;;;;;;;;2268146;59;21043;-79
2022/10/17 10:29:23;;;;;;;5.85;2.45;;;;;;;;;;2269119;59;21123;-78
2022/10/17 10:31:51;;;;;;;2.97;2.40;;;;;;;;;;2401496;53;21102;-78
2022/10/17 10:34:20;;;;;;;3.55;2.10;;;;;;;;;;2287884;58;21045;-78
2022/10/17 10:36:50;;;;;;;4.30;3.00;;;;;;;;;;2285719;58;21104;-79
2022/10/17 10:39:25;;;;;;;4.62;2.80;;;;;;;;;;2286687;58;21057;-78
2022/10/17 10:41:52;;;;;;;6.20;2.95;;;;;;;;;;2287061;58;21044;-78
2022/10/17 10:44:21;;;;;;;5.07;2.97;;;;;;;;;;2492905;52;21075;-75
2022/10/17 10:46:48;;;;;;;2.97;2.60;;;;;;;;;;2389832;56;21126;-75
2022/10/17 10:49:29;;;;;;;3.28;2.55;;;;;;;;;;2392297;56;21035;-75
2022/10/17 10:51:57;;;;;;;4.93;2.70;;;;;;;;;;2390865;56;21154;-74
2022/10/17 10:54:27;;;;;;;3.95;2.40;;;;;;;;;;2391737;56;21047;-74
2022/10/17 10:56:56;;;;;;;8.30;2.60;;;;;;;;;;2391730;56;21473;-75
2022/10/17 10:59:29;;;;;;;4.30;2.83;;;;;;;;;;2389653;56;21099;-77
2022/10/17 11:01:58;;;;;;;4.05;2.60;;;;;;;;;;2392100;56;21094;-77
2022/10/17 11:07:04;;;;;;;3.35;2.45;;;;;;;;;;2358093;53;22694;-74
2022/10/17 11:09:37;;;;;;;3.05;2.42;;;;;;;;;;2358900;53;21101;-75
2022/10/17 11:12:20;;;;;;;3.50;2.00;;;;;;;;;;2349189;53;21064;-74
2022/10/17 11:14:50;;;;;;;7.60;2.28;;;;;;;;;;2354078;56;21126;-75
2022/10/17 11:17:21;;;;;;;4.10;2.30;;;;;;;;;;2372187;56;22398;-77
2022/10/17 11:19:52;;;;;;;4.35;2.22;;;;;;;;;;2370785;56;21043;-74
2022/10/17 11:22:23;;;;;;;10.45;2.78;;;;;;;;;;2372855;56;21102;-75
2022/10/17 11:24:55;;;;;;;6.22;3.30;;;;;;;;;;2371377;56;21698;-74
2022/10/17 11:27:23;;;;;;;3.33;2.80;;;;;;;;;;2407301;52;21039;-75
2022/10/17 11:29:51;;;;;;;3.78;3.10;;;;;;;;;;2369929;56;21648;-75
2022/10/17 11:32:20;;;;;;;3.35;2.30;;;;;;;;;;2371085;56;21102;-75
2022/10/17 11:34:49;;;;;;;4.65;2.80;;;;;;;;;;2404762;52;21699;-75
2022/10/17 11:37:18;;;;;;;3.55;2.67;;;;;;;;;;2367714;56;21106;-75
2022/10/17 11:39:48;;;;;;;6.40;2.53;;;;;;;;;;2369542;56;21054;-75
2022/10/17 11:42:18;;;;;;;8.38;3.20;;;;;;;;;;2372940;56;21078;-74
2022/10/17 11:44:45;;;;;;;6.03;2.50;;;;;;;;;;2371813;56;21912;-75
2022/10/17 11:47:14;;;;;;;3.80;2.60;;;;;;;;;;2371609;56;21102;-75
2022/10/17 11:49:43;;;;;;;4.53;2.45;;;;;;;;;;2371725;56;21086;-75
2022/10/17 11:52:17;;;;;;;4.12;2.37;;;;;;;;;;2384064;52;21046;-74
2022/10/17 11:54:46;;;;;;;2.97;2.37;;;;;;;;;;2371398;56;21051;-75
2022/10/17 11:57:25;;;;;;;4.12;2.62;;;;;;;;;;2628011;52;21521;-75
2022/10/17 12:00:03;;;;;;;4.40;2.33;;;;;;;;;;2371977;56;21628;-75
2022/10/17 12:02:33;;;;;;;6.60;3.00;;;;;;;;;;2373738;56;21568;-75
2022/10/17 12:05:04;;;;;;;6.97;2.60;;;;;;;;;;2373020;56;21193;-75
2022/10/17 12:10:20;;;;;;;6.37;3.20;;;;;;;;;;2325383;57;22096;-75
2022/10/17 12:12:48;;;;;;;3.28;2.40;;;;;;;;;;2316870;58;21570;-74
2022/10/17 12:15:33;;;;;;;7.15;2.83;;;;;;;;;;2336030;54;21046;-75
2022/10/17 12:18:01;;;;;;;3.22;2.83;;;;;;;;;;2344572;57;21054;-74
2022/10/17 12:20:33;;;;;;;4.82;2.62;;;;;;;;;;2343336;57;21117;-74
2022/10/17 12:23:19;;;;;;;7.60;3.20;;;;;;;;;;2342920;53;21105;-74
2022/10/17 12:25:50;;;;;;;3.75;2.97;;;;;;;;;;2342938;53;21793;-75
2022/10/17 12:28:20;;;;;;;4.50;2.80;;;;;;;;;;2345127;53;21636;-75
2022/10/17 12:30:51;;;;;;;5.90;3.00;;;;;;;;;;2340564;57;21050;-75
2022/10/17 12:33:21;;;;;;;6.47;3.20;;;;;;;;;;2345043;57;21114;-74
2022/10/17 12:35:49;;;;;;;4.55;3.20;;;;;;;;;;2342100;57;21148;-75
2022/10/17 12:38:23;;;;;;;5.28;3.37;;;;;;;;;;2424814;53;21192;-74
2022/10/17 12:40:55;;;;;;;6.22;3.05;;;;;;;;;;2449803;53;21050;-76
2022/10/17 12:43:41;;;;;;;5.37;3.22;;;;;;;;;;2343767;57;21635;-75
2022/10/17 12:46:08;;;;;;;6.22;4.07;;;;;;;;;;2364349;56;21105;-74
2022/10/17 12:48:53;;;;;;;8.20;3.65;;;;;;;;;;2343358;57;21053;-75
2022/10/17 12:51:21;;;;;;;9.73;3.87;;;;;;;;;;2341552;57;21731;-75
2022/10/17 12:53:52;;;;;;;6.87;3.12;;;;;;;;;;2342907;57;21106;-75
2022/10/17 12:56:20;;;;;;;8.10;3.72;;;;;;;;;;2342633;57;21057;-75
2022/10/17 12:58:48;;;;;;;5.90;3.28;;;;;;;;;;2343797;57;21667;-75
2022/10/17 13:01:17;;;;;;;5.82;3.95;;;;;;;;;;2344257;57;21113;-75
2022/10/17 13:03:47;;;;;;;7.32;3.30;;;;;;;;;;2344482;57;21050;-76
2022/10/17 13:06:16;;;;;;;6.32;4.05;;;;;;;;;;2344082;57;21049;-76
2022/10/17 13:08:44;;;;;;;7.12;3.92;;;;;;;;;;2339364;57;21062;-75
2022/10/17 13:11:14;;;;;;;5.60;3.45;;;;;;;;;;2353610;54;21078;-75
2022/10/17 13:13:43;;;;;;;5.82;3.62;;;;;;;;;;2323823;54;21045;-75
2022/10/17 13:16:27;;;;;;;10.60;3.97;;;;;;;;;;2323497;57;21508;-76
2022/10/17 13:18:54;;;;;;;5.25;3.95;;;;;;;;;;2324121;57;21077;-75
2022/10/17 13:21:21;;;;;;;8.68;4.20;;;;;;;;;;2320763;58;21059;-75
2022/10/17 13:23:50;;;;;;;15.55;3.80;;;;;;;;;;2323301;58;21549;-76
2022/10/17 13:26:19;;;;;;;5.35;3.70;;;;;;;;;;2371133;54;21046;-75
2022/10/17 13:28:46;;;;;;;6.68;3.42;;;;;;;;;;2441760;54;21120;-76
2022/10/17 13:31:28;;;;;;;4.70;3.72;;;;;;;;;;2328172;54;21122;-76
2022/10/17 13:33:57;;;;;;;7.62;4.28;;;;;;;;;;2324501;58;21039;-76
2022/10/17 13:36:24;;;;;;;11.60;5.57;;;;;;;;;;2325622;58;21026;-76
2022/10/17 13:38:51;;;;;;;15.65;6.07;;;;;;;;;;2377626;54;21038;-75
2022/10/17 13:41:22;;;;;;;8.05;5.20;;;;;;;;;;2324356;58;21070;-76
2022/10/17 13:43:50;;;;;;;7.93;5.05;;;;;;;;;;2324904;58;21062;-75
2022/10/17 13:46:20;;;;;;;9.13;5.07;;;;;;;;;;2324552;58;21049;-76
2022/10/17 13:48:48;;;;;;;7.20;5.03;;;;;;;;;;2324310;58;21490;-76
2022/10/17 13:51:15;;;;;;;7.22;4.68;;;;;;;;;;2324837;58;21051;-76
2022/10/17 13:53:43;;;;;;;11.23;5.80;;;;;;;;;;2324696;58;21054;-76
2022/10/17 13:56:18;;;;;;;8.48;5.62;;;;;;;;;;2335414;54;21054;-75
2022/10/17 13:58:46;;;;;;;8.88;5.12;;;;;;;;;;2324626;58;21071;-74
2022/10/17 14:01:13;;;;;;;10.38;5.82;;;;;;;;;;2325239;58;21070;-75
2022/10/17 14:03:41;;;;;;;8.68;5.53;;;;;;;;;;2325096;58;21046;-75
2022/10/17 14:06:13;;;;;;;14.02;6.37;;;;;;;;;;2325381;58;21141;-75
2022/10/17 14:08:46;;;;;;;9.50;5.72;;;;;;;;;;2380937;54;21607;-76
2022/10/17 14:11:15;;;;;;;8.23;5.35;;;;;;;;;;2324057;58;21524;-76
2022/10/17 14:13:43;;;;;;;11.48;6.22;;;;;;;;;;2325445;58;21647;-76
2022/10/17 14:16:10;;;;;;;8.45;6.35;;;;;;;;;;2324681;58;21058;-76
2022/10/17 14:18:37;;;;;;;11.00;6.20;;;;;;;;;;2353363;54;21746;-76
2022/10/17 14:21:05;;;;;;;9.27;6.50;;;;;;;;;;2324762;58;21623;-76
2022/10/17 14:23:34;;;;;;;12.10;6.62;;;;;;;;;;2325773;58;21623;-76
2022/10/17 14:26:05;;;;;;;14.73;7.47;;;;;;;;;;2324877;58;21557;-76
2022/10/17 14:28:33;;;;;;;10.07;6.25;;;;;;;;;;2325857;58;21054;-76
2022/10/17 14:31:10;;;;;;;11.07;6.87;;;;;;;;;;2324784;58;21552;-75
2022/10/17 14:33:37;;;;;;;11.93;6.37;;;;;;;;;;2325717;58;21201;-76
2022/10/17 14:36:05;;;;;;;12.73;6.80;;;;;;;;;;2324974;58;21066;-76
2022/10/17 14:38:32;;;;;;;9.43;7.20;;;;;;;;;;2323421;56;21050;-76
2022/10/17 14:41:00;;;;;;;10.05;6.20;;;;;;;;;;2410095;54;21101;-75
2022/10/17 14:43:29;;;;;;;9.38;6.15;;;;;;;;;;2325536;58;21055;-75
2022/10/17 14:45:57;;;;;;;8.68;6.50;;;;;;;;;;2325855;58;21525;-75
2022/10/17 14:48:26;;;;;;;14.30;7.03;;;;;;;;;;2438541;54;21110;-76
2022/10/17 14:51:06;;;;;;;10.55;6.10;;;;;;;;;;2324842;58;21118;-81
2022/10/17 14:53:33;;;;;;;8.98;5.45;;;;;;;;;;2325568;58;21587;-74
2022/10/17 14:56:00;;;;;;;9.50;6.57;;;;;;;;;;2324238;58;21497;-75
2022/10/17 14:58:29;;;;;;;8.45;6.55;;;;;;;;;;2324376;58;21101;-74
2022/10/17 15:00:57;;;;;;;11.07;7.07;;;;;;;;;;2324949;58;21166;-74
2022/10/17 15:03:24;;;;;;;11.57;7.15;;;;;;;;;;2324888;58;21129;-74